sensor_id;sensor_type;location;lat;lon;timestamp;P1;durP1;ratioP1;P2;durP2;ratioP2
14975;SDS011;7584;60.468;25.126;2022-12-18T00:01:29;5.47;;;2.80;;
14975;SDS011;7584;60.468;25.126;2022-12-18T00:03:56;7.70;;;3.23;;
14975;SDS011;7584;60.468;25.126;2022-12-18T00:06:22;5.93;;;2.80;;
14975;SDS011;7584;60.468;25.126;2022-12-18T00:08:48;5.50;;;3.03;;
14975;SDS011;7584;60.468;25.126;2022-12-18T00:11:14;5.93;;;3.07;;
14975;SDS011;7584;60.468;25.126;2022-12-18T00:13:40;6.13;;;3.47;;
14975;SDS011;7584;60.468;25.126;2022-12-18T00:16:07;6.90;;;2.93;;
14975;SDS011;7584;60.468;25.126;2022-12-18T00:18:33;7.73;;;2.87;;
14975;SDS011;7584;60.468;25.126;2022-12-18T00:21:02;6.47;;;3.07;;
14975;SDS011;7584;60.468;25.126;2022-12-18T00:23:28;6.83;;;3.20;;
14975;SDS011;7584;60.468;25.126;2022-12-18T00:25:54;6.63;;;2.93;;
14975;SDS011;7584;60.468;25.126;2022-12-18T00:28:19;5.20;;;3.10;;
14975;SDS011;7584;60.468;25.126;2022-12-18T00:30:44;5.53;;;2.80;;
14975;SDS011;7584;60.468;25.126;2022-12-18T00:33:10;4.83;;;2.80;;
14975;SDS011;7584;60.468;25.126;2022-12-18T00:35:35;4.77;;;2.53;;
14975;SDS011;7584;60.468;25.126;2022-12-18T00:38:00;7.57;;;3.67;;
14975;SDS011;7584;60.468;25.126;2022-12-18T00:40:26;4.50;;;2.83;;
14975;SDS011;7584;60.468;25.126;2022-12-18T00:42:51;6.27;;;3.50;;
14975;SDS011;7584;60.468;25.126;2022-12-18T00:45:27;4.73;;;2.70;;
14975;SDS011;7584;60.468;25.126;2022-12-18T00:47:52;4.63;;;2.70;;
14975;SDS011;7584;60.468;25.126;2022-12-18T00:50:18;5.87;;;3.30;;
14975;SDS011;7584;60.468;25.126;2022-12-18T00:52:43;7.97;;;3.10;;
14975;SDS011;7584;60.468;25.126;2022-12-18T00:55:09;6.37;;;3.17;;
14975;SDS011;7584;60.468;25.126;2022-12-18T00:57:34;7.90;;;3.23;;
14975;SDS011;7584;60.468;25.126;2022-12-18T01:00:00;6.13;;;3.07;;
14975;SDS011;7584;60.468;25.126;2022-12-18T01:02:25;6.27;;;2.53;;
14975;SDS011;7584;60.468;25.126;2022-12-18T01:04:51;6.23;;;2.80;;
14975;SDS011;7584;60.468;25.126;2022-12-18T01:07:16;5.90;;;3.00;;
14975;SDS011;7584;60.468;25.126;2022-12-18T01:09:41;5.90;;;3.17;;
14975;SDS011;7584;60.468;25.126;2022-12-18T01:12:06;5.67;;;3.13;;
14975;SDS011;7584;60.468;25.126;2022-12-18T01:14:32;5.63;;;2.97;;
14975;SDS011;7584;60.468;25.126;2022-12-18T01:16:57;8.00;;;3.47;;
14975;SDS011;7584;60.468;25.126;2022-12-18T01:19:23;5.87;;;3.40;;
14975;SDS011;7584;60.468;25.126;2022-12-18T01:21:48;4.50;;;2.73;;
14975;SDS011;7584;60.468;25.126;2022-12-18T01:24:14;5.27;;;2.90;;
14975;SDS011;7584;60.468;25.126;2022-12-18T01:26:39;5.03;;;2.83;;
14975;SDS011;7584;60.468;25.126;2022-12-18T01:29:04;4.20;;;2.77;;
14975;SDS011;7584;60.468;25.126;2022-12-18T01:31:30;7.03;;;2.87;;
14975;SDS011;7584;60.468;25.126;2022-12-18T01:33:56;7.57;;;2.90;;
14975;SDS011;7584;60.468;25.126;2022-12-18T01:36:23;5.00;;;2.83;;
14975;SDS011;7584;60.468;25.126;2022-12-18T01:38:48;5.27;;;3.37;;
14975;SDS011;7584;60.468;25.126;2022-12-18T01:41:17;5.27;;;2.87;;
14975;SDS011;7584;60.468;25.126;2022-12-18T01:43:51;6.90;;;3.53;;
14975;SDS011;7584;60.468;25.126;2022-12-18T01:46:18;7.60;;;3.13;;
14975;SDS011;7584;60.468;25.126;2022-12-18T01:48:49;7.00;;;3.43;;
14975;SDS011;7584;60.468;25.126;2022-12-18T01:51:15;4.47;;;2.47;;
14975;SDS011;7584;60.468;25.126;2022-12-18T01:53:41;7.17;;;2.90;;
14975;SDS011;7584;60.468;25.126;2022-12-18T01:56:07;7.97;;;3.17;;
14975;SDS011;7584;60.468;25.126;2022-12-18T02:01:01;4.17;;;2.40;;
14975;SDS011;7584;60.468;25.126;2022-12-18T02:03:26;4.40;;;2.67;;
14975;SDS011;7584;60.468;25.126;2022-12-18T02:08:39;5.67;;;2.90;;
14975;SDS011;7584;60.468;25.126;2022-12-18T02:13:44;5.03;;;2.80;;
14975;SDS011;7584;60.468;25.126;2022-12-18T02:18:57;7.63;;;2.43;;
14975;SDS011;7584;60.468;25.126;2022-12-18T02:28:46;5.20;;;2.40;;
14975;SDS011;7584;60.468;25.126;2022-12-18T02:31:14;4.87;;;2.50;;
14975;SDS011;7584;60.468;25.126;2022-12-18T02:33:43;3.23;;;2.23;;
14975;SDS011;7584;60.468;25.126;2022-12-18T02:36:09;5.43;;;2.73;;
14975;SDS011;7584;60.468;25.126;2022-12-18T02:38:35;7.70;;;3.17;;
14975;SDS011;7584;60.468;25.126;2022-12-18T02:41:02;5.33;;;2.43;;
14975;SDS011;7584;60.468;25.126;2022-12-18T02:43:29;7.77;;;2.90;;
14975;SDS011;7584;60.468;25.126;2022-12-18T02:45:56;6.33;;;3.07;;
14975;SDS011;7584;60.468;25.126;2022-12-18T02:48:27;5.07;;;2.87;;
14975;SDS011;7584;60.468;25.126;2022-12-18T02:51:03;4.93;;;2.33;;
14975;SDS011;7584;60.468;25.126;2022-12-18T02:56:07;4.33;;;3.10;;
14975;SDS011;7584;60.468;25.126;2022-12-18T03:08:54;3.90;;;2.40;;
14975;SDS011;7584;60.468;25.126;2022-12-18T03:11:22;8.90;;;2.80;;
14975;SDS011;7584;60.468;25.126;2022-12-18T03:14:07;5.13;;;2.63;;
14975;SDS011;7584;60.468;25.126;2022-12-18T03:16:34;6.50;;;2.40;;
14975;SDS011;7584;60.468;25.126;2022-12-18T03:19:05;5.83;;;2.30;;
14975;SDS011;7584;60.468;25.126;2022-12-18T03:21:37;4.77;;;2.60;;
14975;SDS011;7584;60.468;25.126;2022-12-18T03:24:04;7.17;;;2.53;;
14975;SDS011;7584;60.468;25.126;2022-12-18T03:26:30;4.50;;;2.80;;
14975;SDS011;7584;60.468;25.126;2022-12-18T03:28:57;6.67;;;2.90;;
14975;SDS011;7584;60.468;25.126;2022-12-18T03:31:24;3.23;;;2.33;;
14975;SDS011;7584;60.468;25.126;2022-12-18T03:33:55;5.27;;;2.50;;
14975;SDS011;7584;60.468;25.126;2022-12-18T03:36:21;5.73;;;3.10;;
14975;SDS011;7584;60.468;25.126;2022-12-18T03:38:47;8.93;;;3.27;;
14975;SDS011;7584;60.468;25.126;2022-12-18T03:41:18;6.27;;;3.27;;
14975;SDS011;7584;60.468;25.126;2022-12-18T03:46:30;4.57;;;2.67;;
14975;SDS011;7584;60.468;25.126;2022-12-18T03:49:02;5.27;;;2.90;;
14975;SDS011;7584;60.468;25.126;2022-12-18T03:54:03;6.80;;;2.87;;
14975;SDS011;7584;60.468;25.126;2022-12-18T03:56:31;6.70;;;2.70;;
14975;SDS011;7584;60.468;25.126;2022-12-18T03:58:57;5.33;;;2.90;;
14975;SDS011;7584;60.468;25.126;2022-12-18T04:01:31;4.40;;;2.50;;
14975;SDS011;7584;60.468;25.126;2022-12-18T04:03:58;4.93;;;2.50;;
14975;SDS011;7584;60.468;25.126;2022-12-18T04:06:24;6.73;;;2.73;;
14975;SDS011;7584;60.468;25.126;2022-12-18T04:08:50;4.30;;;2.50;;
14975;SDS011;7584;60.468;25.126;2022-12-18T04:11:16;7.57;;;2.97;;
14975;SDS011;7584;60.468;25.126;2022-12-18T04:13:41;5.50;;;3.63;;
14975;SDS011;7584;60.468;25.126;2022-12-18T04:16:07;8.70;;;3.20;;
14975;SDS011;7584;60.468;25.126;2022-12-18T04:18:34;8.97;;;3.47;;
14975;SDS011;7584;60.468;25.126;2022-12-18T04:20:59;6.53;;;2.70;;
14975;SDS011;7584;60.468;25.126;2022-12-18T04:23:25;5.13;;;3.03;;
14975;SDS011;7584;60.468;25.126;2022-12-18T04:25:50;6.33;;;2.60;;
14975;SDS011;7584;60.468;25.126;2022-12-18T04:28:15;4.77;;;2.80;;
14975;SDS011;7584;60.468;25.126;2022-12-18T04:30:40;6.73;;;2.47;;
14975;SDS011;7584;60.468;25.126;2022-12-18T04:33:12;4.83;;;2.60;;
14975;SDS011;7584;60.468;25.126;2022-12-18T04:35:38;6.83;;;3.00;;
14975;SDS011;7584;60.468;25.126;2022-12-18T04:38:05;5.10;;;2.33;;
14975;SDS011;7584;60.468;25.126;2022-12-18T04:40:30;7.37;;;2.97;;
14975;SDS011;7584;60.468;25.126;2022-12-18T04:42:55;3.93;;;2.30;;
14975;SDS011;7584;60.468;25.126;2022-12-18T04:45:20;4.27;;;2.80;;
14975;SDS011;7584;60.468;25.126;2022-12-18T04:47:46;7.10;;;3.20;;
14975;SDS011;7584;60.468;25.126;2022-12-18T04:50:11;4.73;;;2.40;;
14975;SDS011;7584;60.468;25.126;2022-12-18T04:52:36;6.73;;;3.00;;
14975;SDS011;7584;60.468;25.126;2022-12-18T04:55:02;9.57;;;3.10;;
14975;SDS011;7584;60.468;25.126;2022-12-18T04:57:28;3.10;;;2.37;;
14975;SDS011;7584;60.468;25.126;2022-12-18T04:59:53;4.60;;;2.37;;
14975;SDS011;7584;60.468;25.126;2022-12-18T05:02:19;6.93;;;2.73;;
14975;SDS011;7584;60.468;25.126;2022-12-18T05:04:44;7.13;;;2.60;;
14975;SDS011;7584;60.468;25.126;2022-12-18T05:07:09;5.57;;;2.67;;
14975;SDS011;7584;60.468;25.126;2022-12-18T05:09:34;7.17;;;3.70;;
14975;SDS011;7584;60.468;25.126;2022-12-18T05:12:00;5.80;;;2.37;;
14975;SDS011;7584;60.468;25.126;2022-12-18T05:14:25;6.17;;;2.33;;
14975;SDS011;7584;60.468;25.126;2022-12-18T05:16:52;7.87;;;2.70;;
14975;SDS011;7584;60.468;25.126;2022-12-18T05:19:17;8.40;;;2.83;;
14975;SDS011;7584;60.468;25.126;2022-12-18T05:21:43;7.60;;;2.50;;
14975;SDS011;7584;60.468;25.126;2022-12-18T05:24:08;5.47;;;2.27;;
14975;SDS011;7584;60.468;25.126;2022-12-18T05:26:33;7.27;;;2.50;;
14975;SDS011;7584;60.468;25.126;2022-12-18T05:28:58;9.37;;;3.17;;
14975;SDS011;7584;60.468;25.126;2022-12-18T05:31:24;6.60;;;2.77;;
14975;SDS011;7584;60.468;25.126;2022-12-18T05:33:49;5.00;;;2.47;;
14975;SDS011;7584;60.468;25.126;2022-12-18T05:36:14;5.97;;;2.83;;
14975;SDS011;7584;60.468;25.126;2022-12-18T05:38:40;5.33;;;3.00;;
14975;SDS011;7584;60.468;25.126;2022-12-18T05:41:06;10.43;;;3.77;;
14975;SDS011;7584;60.468;25.126;2022-12-18T05:43:31;11.13;;;5.23;;
14975;SDS011;7584;60.468;25.126;2022-12-18T05:46:02;6.03;;;3.00;;
14975;SDS011;7584;60.468;25.126;2022-12-18T05:48:27;9.50;;;3.67;;
14975;SDS011;7584;60.468;25.126;2022-12-18T05:50:53;9.37;;;3.23;;
14975;SDS011;7584;60.468;25.126;2022-12-18T05:53:19;8.77;;;3.43;;
14975;SDS011;7584;60.468;25.126;2022-12-18T05:55:44;7.87;;;3.20;;
14975;SDS011;7584;60.468;25.126;2022-12-18T05:58:11;9.97;;;3.53;;
14975;SDS011;7584;60.468;25.126;2022-12-18T06:00:37;10.63;;;3.30;;
14975;SDS011;7584;60.468;25.126;2022-12-18T06:03:06;8.20;;;3.37;;
14975;SDS011;7584;60.468;25.126;2022-12-18T06:05:39;7.70;;;3.20;;
14975;SDS011;7584;60.468;25.126;2022-12-18T06:08:05;6.70;;;2.93;;
14975;SDS011;7584;60.468;25.126;2022-12-18T06:10:30;5.03;;;3.00;;
14975;SDS011;7584;60.468;25.126;2022-12-18T06:12:55;6.40;;;3.20;;
14975;SDS011;7584;60.468;25.126;2022-12-18T06:15:21;8.37;;;3.17;;
14975;SDS011;7584;60.468;25.126;2022-12-18T06:17:46;8.70;;;3.13;;
14975;SDS011;7584;60.468;25.126;2022-12-18T06:20:11;6.27;;;3.20;;
14975;SDS011;7584;60.468;25.126;2022-12-18T06:22:37;9.77;;;3.73;;
14975;SDS011;7584;60.468;25.126;2022-12-18T06:25:02;5.07;;;2.80;;
14975;SDS011;7584;60.468;25.126;2022-12-18T06:27:27;8.87;;;3.70;;
14975;SDS011;7584;60.468;25.126;2022-12-18T06:29:53;11.10;;;3.33;;
14975;SDS011;7584;60.468;25.126;2022-12-18T06:32:18;7.83;;;3.60;;
14975;SDS011;7584;60.468;25.126;2022-12-18T06:34:43;4.43;;;3.00;;
14975;SDS011;7584;60.468;25.126;2022-12-18T06:37:09;9.43;;;3.23;;
14975;SDS011;7584;60.468;25.126;2022-12-18T06:39:34;10.00;;;3.20;;
14975;SDS011;7584;60.468;25.126;2022-12-18T06:41:59;6.93;;;3.27;;
14975;SDS011;7584;60.468;25.126;2022-12-18T06:44:24;9.40;;;4.30;;
14975;SDS011;7584;60.468;25.126;2022-12-18T06:46:50;8.10;;;3.80;;
14975;SDS011;7584;60.468;25.126;2022-12-18T06:49:15;12.87;;;3.70;;
14975;SDS011;7584;60.468;25.126;2022-12-18T06:51:41;7.27;;;3.20;;
14975;SDS011;7584;60.468;25.126;2022-12-18T06:54:06;8.30;;;3.10;;
14975;SDS011;7584;60.468;25.126;2022-12-18T06:56:31;9.17;;;3.60;;
14975;SDS011;7584;60.468;25.126;2022-12-18T06:58:57;6.47;;;3.60;;
14975;SDS011;7584;60.468;25.126;2022-12-18T07:01:22;8.87;;;3.73;;
14975;SDS011;7584;60.468;25.126;2022-12-18T07:03:51;8.20;;;3.43;;
14975;SDS011;7584;60.468;25.126;2022-12-18T07:06:19;12.33;;;3.30;;
14975;SDS011;7584;60.468;25.126;2022-12-18T07:08:45;7.80;;;3.33;;
14975;SDS011;7584;60.468;25.126;2022-12-18T07:11:11;5.67;;;3.07;;
14975;SDS011;7584;60.468;25.126;2022-12-18T07:13:37;8.20;;;3.10;;
14975;SDS011;7584;60.468;25.126;2022-12-18T07:16:06;7.93;;;3.47;;
14975;SDS011;7584;60.468;25.126;2022-12-18T07:18:31;12.07;;;3.30;;
14975;SDS011;7584;60.468;25.126;2022-12-18T07:20:57;9.40;;;3.20;;
14975;SDS011;7584;60.468;25.126;2022-12-18T07:23:22;11.23;;;2.90;;
14975;SDS011;7584;60.468;25.126;2022-12-18T07:25:47;10.23;;;2.97;;
14975;SDS011;7584;60.468;25.126;2022-12-18T07:28:12;6.03;;;3.30;;
14975;SDS011;7584;60.468;25.126;2022-12-18T07:30:39;6.00;;;2.83;;
14975;SDS011;7584;60.468;25.126;2022-12-18T07:33:05;6.23;;;2.93;;
14975;SDS011;7584;60.468;25.126;2022-12-18T07:35:30;10.20;;;3.47;;
14975;SDS011;7584;60.468;25.126;2022-12-18T07:37:55;10.67;;;4.00;;
14975;SDS011;7584;60.468;25.126;2022-12-18T07:40:21;10.73;;;3.53;;
14975;SDS011;7584;60.468;25.126;2022-12-18T07:42:46;10.53;;;3.57;;
14975;SDS011;7584;60.468;25.126;2022-12-18T07:45:11;7.10;;;2.83;;
14975;SDS011;7584;60.468;25.126;2022-12-18T07:47:36;9.23;;;3.73;;
14975;SDS011;7584;60.468;25.126;2022-12-18T07:50:02;8.40;;;3.77;;
14975;SDS011;7584;60.468;25.126;2022-12-18T07:52:28;7.77;;;3.87;;
14975;SDS011;7584;60.468;25.126;2022-12-18T07:54:53;14.23;;;3.30;;
14975;SDS011;7584;60.468;25.126;2022-12-18T07:57:18;5.50;;;2.63;;
14975;SDS011;7584;60.468;25.126;2022-12-18T07:59:44;7.40;;;3.10;;
14975;SDS011;7584;60.468;25.126;2022-12-18T08:02:09;10.07;;;3.00;;
14975;SDS011;7584;60.468;25.126;2022-12-18T08:04:34;9.53;;;3.10;;
14975;SDS011;7584;60.468;25.126;2022-12-18T08:07:00;9.87;;;3.33;;
14975;SDS011;7584;60.468;25.126;2022-12-18T08:09:25;6.43;;;2.63;;
14975;SDS011;7584;60.468;25.126;2022-12-18T08:11:51;8.03;;;3.30;;
14975;SDS011;7584;60.468;25.126;2022-12-18T08:14:16;14.10;;;2.87;;
14975;SDS011;7584;60.468;25.126;2022-12-18T08:16:41;6.27;;;2.90;;
14975;SDS011;7584;60.468;25.126;2022-12-18T08:19:07;14.20;;;3.07;;
14975;SDS011;7584;60.468;25.126;2022-12-18T08:21:32;6.33;;;3.10;;
14975;SDS011;7584;60.468;25.126;2022-12-18T08:23:58;7.10;;;2.93;;
14975;SDS011;7584;60.468;25.126;2022-12-18T08:26:24;5.97;;;3.33;;
14975;SDS011;7584;60.468;25.126;2022-12-18T08:28:50;9.57;;;3.73;;
14975;SDS011;7584;60.468;25.126;2022-12-18T08:31:15;6.83;;;2.97;;
14975;SDS011;7584;60.468;25.126;2022-12-18T08:33:41;6.50;;;2.63;;
14975;SDS011;7584;60.468;25.126;2022-12-18T08:36:07;8.53;;;2.90;;
14975;SDS011;7584;60.468;25.126;2022-12-18T08:38:33;7.40;;;2.77;;
14975;SDS011;7584;60.468;25.126;2022-12-18T08:41:06;7.97;;;3.27;;
14975;SDS011;7584;60.468;25.126;2022-12-18T08:43:31;8.80;;;3.40;;
14975;SDS011;7584;60.468;25.126;2022-12-18T08:46:15;9.93;;;3.47;;
14975;SDS011;7584;60.468;25.126;2022-12-18T08:48:41;9.47;;;3.40;;
14975;SDS011;7584;60.468;25.126;2022-12-18T08:51:06;6.63;;;3.00;;
14975;SDS011;7584;60.468;25.126;2022-12-18T08:53:31;7.53;;;3.03;;
14975;SDS011;7584;60.468;25.126;2022-12-18T08:55:57;5.77;;;2.90;;
14975;SDS011;7584;60.468;25.126;2022-12-18T08:58:22;8.03;;;3.07;;
14975;SDS011;7584;60.468;25.126;2022-12-18T09:00:48;5.70;;;2.90;;
14975;SDS011;7584;60.468;25.126;2022-12-18T09:03:14;5.30;;;2.40;;
14975;SDS011;7584;60.468;25.126;2022-12-18T09:05:39;6.10;;;2.47;;
14975;SDS011;7584;60.468;25.126;2022-12-18T09:08:05;7.07;;;2.30;;
14975;SDS011;7584;60.468;25.126;2022-12-18T09:10:30;6.77;;;2.53;;
14975;SDS011;7584;60.468;25.126;2022-12-18T09:12:56;7.23;;;2.40;;
14975;SDS011;7584;60.468;25.126;2022-12-18T09:15:21;8.43;;;2.43;;
14975;SDS011;7584;60.468;25.126;2022-12-18T09:17:47;8.93;;;2.10;;
14975;SDS011;7584;60.468;25.126;2022-12-18T09:20:13;7.77;;;2.10;;
14975;SDS011;7584;60.468;25.126;2022-12-18T09:22:38;6.13;;;2.30;;
14975;SDS011;7584;60.468;25.126;2022-12-18T09:25:05;9.03;;;2.23;;
14975;SDS011;7584;60.468;25.126;2022-12-18T09:27:33;6.70;;;2.50;;
14975;SDS011;7584;60.468;25.126;2022-12-18T09:29:58;3.73;;;2.20;;
14975;SDS011;7584;60.468;25.126;2022-12-18T09:32:23;5.43;;;2.97;;
14975;SDS011;7584;60.468;25.126;2022-12-18T09:34:48;8.43;;;2.43;;
14975;SDS011;7584;60.468;25.126;2022-12-18T09:37:14;6.20;;;2.37;;
14975;SDS011;7584;60.468;25.126;2022-12-18T09:39:39;5.70;;;2.07;;
14975;SDS011;7584;60.468;25.126;2022-12-18T09:42:05;9.13;;;2.03;;
14975;SDS011;7584;60.468;25.126;2022-12-18T09:44:41;8.80;;;2.30;;
14975;SDS011;7584;60.468;25.126;2022-12-18T09:49:53;6.33;;;2.50;;
14975;SDS011;7584;60.468;25.126;2022-12-18T09:54:56;8.13;;;2.47;;
14975;SDS011;7584;60.468;25.126;2022-12-18T09:57:22;4.13;;;2.33;;
14975;SDS011;7584;60.468;25.126;2022-12-18T10:00:06;11.37;;;2.03;;
14975;SDS011;7584;60.468;25.126;2022-12-18T10:02:33;5.53;;;1.97;;
14975;SDS011;7584;60.468;25.126;2022-12-18T10:07:30;6.73;;;2.73;;
14975;SDS011;7584;60.468;25.126;2022-12-18T10:10:10;6.70;;;2.10;;
14975;SDS011;7584;60.468;25.126;2022-12-18T10:12:42;6.47;;;2.23;;
14975;SDS011;7584;60.468;25.126;2022-12-18T10:20:15;8.63;;;2.03;;
14975;SDS011;7584;60.468;25.126;2022-12-18T10:25:17;4.70;;;2.80;;
14975;SDS011;7584;60.468;25.126;2022-12-18T10:27:44;7.37;;;2.43;;
14975;SDS011;7584;60.468;25.126;2022-12-18T10:30:16;8.20;;;2.70;;
14975;SDS011;7584;60.468;25.126;2022-12-18T10:32:42;6.93;;;2.37;;
14975;SDS011;7584;60.468;25.126;2022-12-18T10:35:07;3.90;;;2.30;;
14975;SDS011;7584;60.468;25.126;2022-12-18T10:37:36;4.67;;;2.37;;
14975;SDS011;7584;60.468;25.126;2022-12-18T10:40:21;6.83;;;2.80;;
14975;SDS011;7584;60.468;25.126;2022-12-18T10:42:49;8.23;;;3.27;;
14975;SDS011;7584;60.468;25.126;2022-12-18T10:45:27;7.00;;;2.63;;
14975;SDS011;7584;60.468;25.126;2022-12-18T10:47:53;10.47;;;2.57;;
14975;SDS011;7584;60.468;25.126;2022-12-18T10:50:19;8.97;;;2.97;;
14975;SDS011;7584;60.468;25.126;2022-12-18T10:52:44;5.73;;;2.67;;
14975;SDS011;7584;60.468;25.126;2022-12-18T10:55:17;6.97;;;3.47;;
14975;SDS011;7584;60.468;25.126;2022-12-18T10:57:43;8.77;;;3.07;;
14975;SDS011;7584;60.468;25.126;2022-12-18T11:03:17;8.40;;;3.63;;
14975;SDS011;7584;60.468;25.126;2022-12-18T11:06:00;4.67;;;2.60;;
14975;SDS011;7584;60.468;25.126;2022-12-18T11:08:25;9.23;;;3.03;;
14975;SDS011;7584;60.468;25.126;2022-12-18T11:10:51;6.00;;;2.80;;
14975;SDS011;7584;60.468;25.126;2022-12-18T11:13:23;9.03;;;3.00;;
14975;SDS011;7584;60.468;25.126;2022-12-18T11:15:50;7.83;;;3.20;;
14975;SDS011;7584;60.468;25.126;2022-12-18T11:18:20;9.70;;;3.30;;
14975;SDS011;7584;60.468;25.126;2022-12-18T11:20:54;10.17;;;2.93;;
14975;SDS011;7584;60.468;25.126;2022-12-18T11:23:21;11.40;;;2.87;;
14975;SDS011;7584;60.468;25.126;2022-12-18T11:25:57;3.97;;;2.80;;
14975;SDS011;7584;60.468;25.126;2022-12-18T11:33:39;4.40;;;2.60;;
14975;SDS011;7584;60.468;25.126;2022-12-18T11:36:06;10.77;;;3.67;;
14975;SDS011;7584;60.468;25.126;2022-12-18T11:38:34;8.50;;;3.43;;
14975;SDS011;7584;60.468;25.126;2022-12-18T11:41:05;11.20;;;3.50;;
14975;SDS011;7584;60.468;25.126;2022-12-18T11:43:40;5.03;;;2.70;;
14975;SDS011;7584;60.468;25.126;2022-12-18T11:46:09;9.13;;;3.20;;
14975;SDS011;7584;60.468;25.126;2022-12-18T11:48:43;4.30;;;2.90;;
14975;SDS011;7584;60.468;25.126;2022-12-18T11:51:11;7.33;;;3.50;;
14975;SDS011;7584;60.468;25.126;2022-12-18T11:53:39;7.23;;;3.13;;
14975;SDS011;7584;60.468;25.126;2022-12-18T12:06:21;10.47;;;3.73;;
14975;SDS011;7584;60.468;25.126;2022-12-18T12:21:46;14.33;;;4.67;;
14975;SDS011;7584;60.468;25.126;2022-12-18T12:24:30;11.70;;;4.57;;
14975;SDS011;7584;60.468;25.126;2022-12-18T12:40:18;13.70;;;4.77;;
14975;SDS011;7584;60.468;25.126;2022-12-18T12:43:28;13.53;;;5.47;;
14975;SDS011;7584;60.468;25.126;2022-12-18T12:48:04;10.07;;;4.57;;
14975;SDS011;7584;60.468;25.126;2022-12-18T12:50:30;16.23;;;8.20;;
14975;SDS011;7584;60.468;25.126;2022-12-18T12:52:58;17.23;;;5.80;;
14975;SDS011;7584;60.468;25.126;2022-12-18T12:55:26;10.23;;;4.80;;
14975;SDS011;7584;60.468;25.126;2022-12-18T12:57:57;10.43;;;5.23;;
14975;SDS011;7584;60.468;25.126;2022-12-18T13:00:24;11.60;;;5.50;;
14975;SDS011;7584;60.468;25.126;2022-12-18T13:12:58;8.80;;;4.67;;
14975;SDS011;7584;60.468;25.126;2022-12-18T13:17:49;9.30;;;4.73;;
14975;SDS011;7584;60.468;25.126;2022-12-18T13:20:32;14.47;;;4.87;;
14975;SDS011;7584;60.468;25.126;2022-12-18T13:22:58;10.37;;;4.90;;
14975;SDS011;7584;60.468;25.126;2022-12-18T13:25:33;9.87;;;5.20;;
14975;SDS011;7584;60.468;25.126;2022-12-18T13:35:40;14.00;;;6.33;;
14975;SDS011;7584;60.468;25.126;2022-12-18T13:38:22;15.70;;;5.47;;
14975;SDS011;7584;60.468;25.126;2022-12-18T13:45:48;11.20;;;4.73;;
14975;SDS011;7584;60.468;25.126;2022-12-18T13:48:23;12.87;;;5.30;;
14975;SDS011;7584;60.468;25.126;2022-12-18T13:50:52;12.80;;;4.70;;
14975;SDS011;7584;60.468;25.126;2022-12-18T13:53:37;10.13;;;4.97;;
14975;SDS011;7584;60.468;25.126;2022-12-18T13:56:04;8.13;;;4.27;;
14975;SDS011;7584;60.468;25.126;2022-12-18T13:58:30;11.27;;;4.37;;
14975;SDS011;7584;60.468;25.126;2022-12-18T14:00:55;8.57;;;4.17;;
14975;SDS011;7584;60.468;25.126;2022-12-18T14:03:23;11.33;;;4.67;;
14975;SDS011;7584;60.468;25.126;2022-12-18T14:05:58;11.03;;;4.87;;
14975;SDS011;7584;60.468;25.126;2022-12-18T14:08:25;8.03;;;3.40;;
14975;SDS011;7584;60.468;25.126;2022-12-18T14:10:52;10.77;;;4.23;;
14975;SDS011;7584;60.468;25.126;2022-12-18T14:13:26;8.70;;;4.20;;
14975;SDS011;7584;60.468;25.126;2022-12-18T14:15:53;8.87;;;4.60;;
14975;SDS011;7584;60.468;25.126;2022-12-18T14:21:03;5.63;;;3.50;;
14975;SDS011;7584;60.468;25.126;2022-12-18T14:26:01;8.93;;;3.50;;
14975;SDS011;7584;60.468;25.126;2022-12-18T14:28:26;9.23;;;3.90;;
14975;SDS011;7584;60.468;25.126;2022-12-18T14:30:52;8.67;;;3.53;;
14975;SDS011;7584;60.468;25.126;2022-12-18T14:33:19;7.67;;;4.10;;
14975;SDS011;7584;60.468;25.126;2022-12-18T14:36:04;6.17;;;3.47;;
14975;SDS011;7584;60.468;25.126;2022-12-18T14:41:05;5.90;;;3.73;;
14975;SDS011;7584;60.468;25.126;2022-12-18T14:43:34;9.57;;;3.83;;
14975;SDS011;7584;60.468;25.126;2022-12-18T14:46:00;6.67;;;3.47;;
14975;SDS011;7584;60.468;25.126;2022-12-18T14:51:02;4.60;;;3.20;;
14975;SDS011;7584;60.468;25.126;2022-12-18T14:55:58;8.03;;;3.70;;
14975;SDS011;7584;60.468;25.126;2022-12-18T14:58:24;7.77;;;3.80;;
14975;SDS011;7584;60.468;25.126;2022-12-18T15:00:49;9.40;;;4.00;;
14975;SDS011;7584;60.468;25.126;2022-12-18T15:03:17;6.73;;;3.30;;
14975;SDS011;7584;60.468;25.126;2022-12-18T15:05:43;8.00;;;4.00;;
14975;SDS011;7584;60.468;25.126;2022-12-18T15:08:28;7.60;;;4.20;;
14975;SDS011;7584;60.468;25.126;2022-12-18T15:10:54;5.47;;;3.27;;
14975;SDS011;7584;60.468;25.126;2022-12-18T15:13:22;5.67;;;2.93;;
14975;SDS011;7584;60.468;25.126;2022-12-18T15:15:47;7.07;;;3.13;;
14975;SDS011;7584;60.468;25.126;2022-12-18T15:18:17;8.63;;;3.63;;
14975;SDS011;7584;60.468;25.126;2022-12-18T15:25:44;8.33;;;4.00;;
14975;SDS011;7584;60.468;25.126;2022-12-18T15:28:21;12.07;;;4.37;;
14975;SDS011;7584;60.468;25.126;2022-12-18T15:31:04;6.30;;;3.73;;
14975;SDS011;7584;60.468;25.126;2022-12-18T15:33:32;7.07;;;3.80;;
14975;SDS011;7584;60.468;25.126;2022-12-18T15:35:58;6.73;;;3.97;;
14975;SDS011;7584;60.468;25.126;2022-12-18T15:38:23;9.10;;;4.20;;
14975;SDS011;7584;60.468;25.126;2022-12-18T15:40:49;7.43;;;4.07;;
14975;SDS011;7584;60.468;25.126;2022-12-18T15:43:14;8.57;;;3.90;;
14975;SDS011;7584;60.468;25.126;2022-12-18T15:45:58;8.30;;;3.60;;
14975;SDS011;7584;60.468;25.126;2022-12-18T15:48:24;5.43;;;3.40;;
14975;SDS011;7584;60.468;25.126;2022-12-18T15:50:52;7.60;;;3.90;;
14975;SDS011;7584;60.468;25.126;2022-12-18T15:53:18;6.20;;;3.63;;
14975;SDS011;7584;60.468;25.126;2022-12-18T15:55:44;4.63;;;3.20;;
14975;SDS011;7584;60.468;25.126;2022-12-18T15:58:28;6.00;;;4.00;;
14975;SDS011;7584;60.468;25.126;2022-12-18T16:00:53;7.17;;;4.33;;
14975;SDS011;7584;60.468;25.126;2022-12-18T16:03:20;7.20;;;3.80;;
14975;SDS011;7584;60.468;25.126;2022-12-18T16:05:45;12.37;;;4.00;;
14975;SDS011;7584;60.468;25.126;2022-12-18T16:08:11;6.93;;;4.00;;
14975;SDS011;7584;60.468;25.126;2022-12-18T16:10:36;6.07;;;3.63;;
14975;SDS011;7584;60.468;25.126;2022-12-18T16:13:01;3.97;;;3.47;;
14975;SDS011;7584;60.468;25.126;2022-12-18T16:15:26;7.43;;;3.80;;
14975;SDS011;7584;60.468;25.126;2022-12-18T16:17:52;8.30;;;4.60;;
14975;SDS011;7584;60.468;25.126;2022-12-18T16:20:18;7.13;;;3.90;;
14975;SDS011;7584;60.468;25.126;2022-12-18T16:22:44;6.10;;;3.90;;
14975;SDS011;7584;60.468;25.126;2022-12-18T16:25:24;6.40;;;3.53;;
14975;SDS011;7584;60.468;25.126;2022-12-18T16:27:50;5.67;;;3.10;;
14975;SDS011;7584;60.468;25.126;2022-12-18T16:30:18;7.77;;;3.53;;
14975;SDS011;7584;60.468;25.126;2022-12-18T16:32:43;7.50;;;3.80;;
14975;SDS011;7584;60.468;25.126;2022-12-18T16:35:09;3.43;;;2.70;;
14975;SDS011;7584;60.468;25.126;2022-12-18T16:37:35;5.47;;;3.00;;
14975;SDS011;7584;60.468;25.126;2022-12-18T16:40:00;5.73;;;3.20;;
14975;SDS011;7584;60.468;25.126;2022-12-18T16:42:25;6.93;;;3.73;;
14975;SDS011;7584;60.468;25.126;2022-12-18T16:44:51;6.70;;;3.17;;
14975;SDS011;7584;60.468;25.126;2022-12-18T16:47:16;6.60;;;3.00;;
14975;SDS011;7584;60.468;25.126;2022-12-18T16:49:42;5.77;;;3.17;;
14975;SDS011;7584;60.468;25.126;2022-12-18T16:52:10;4.07;;;2.90;;
14975;SDS011;7584;60.468;25.126;2022-12-18T16:54:35;5.80;;;3.20;;
14975;SDS011;7584;60.468;25.126;2022-12-18T16:57:00;3.53;;;2.50;;
14975;SDS011;7584;60.468;25.126;2022-12-18T16:59:26;3.87;;;2.80;;
14975;SDS011;7584;60.468;25.126;2022-12-18T17:01:51;5.20;;;2.93;;
14975;SDS011;7584;60.468;25.126;2022-12-18T17:04:17;6.30;;;3.10;;
14975;SDS011;7584;60.468;25.126;2022-12-18T17:06:43;5.93;;;2.67;;
14975;SDS011;7584;60.468;25.126;2022-12-18T17:09:12;4.00;;;2.70;;